Latest Weather Observations for Bedout Island

IDW60801

Issued at 6:32 pm WST Saturday 20 December 2014 (issued every 30 minutes, with the page automatically refreshed every 10 minutes)

About weather observations | Map of weather stations | Latest weather observations for WA | Other Formats
Station Details ID: 004100 Name: BEDOUT ISLAND Lat: -19.59 Lon: 119.10 Height: 8.6 m
Data from the previous 72 hours. | See also: Recent months for locations in Western Australia
Date/Time
WST
Temp
°C
App
Temp
°C
Dew
Point
Rel
Hum
%
Delta-T
°C
Wind Press
QNH
hPa
Press
MSL
hPa
Rain
since 9 am
mm
Dir
 
Spd
km/h
Gust
km/h
Spd
kts
Gust
kts
20/06:30pm 28.7 29.3 23.4 73 3.6 NW 26 30 14 16 1007.0 - -
20/06:00pm 29.3 29.5 23.5 71 4.0 WNW 28 32 15 17 1006.6 1006.5 -
20/05:30pm 30.0 29.4 23.4 67 4.5 WNW 32 35 17 19 1006.3 - -
20/05:00pm 30.7 29.5 22.6 62 5.5 WNW 33 35 18 19 1006.2 - -
20/04:30pm 31.6 31.3 23.2 61 5.8 WNW 30 32 16 17 1006.7 - -
20/04:00pm 32.0 31.8 22.7 58 6.4 WNW 28 32 15 17 1006.6 - -
20/03:30pm 32.2 31.6 22.6 57 6.6 WNW 30 33 16 18 1006.9 - -
20/03:00pm 32.8 32.4 22.3 54 7.2 WNW 28 32 15 17 1007.0 1006.9 -
20/02:30pm 33.3 33.6 23.0 54 7.1 WNW 26 30 14 16 1007.1 - -
20/02:00pm 33.0 33.2 22.7 54 7.1 WNW 26 30 14 16 1007.3 - -
20/01:30pm 33.4 34.4 22.8 53 7.3 WNW 22 26 12 14 1007.9 - -
20/01:00pm 33.6 35.3 23.0 54 7.3 WNW 19 22 10 12 1008.5 - -
20/12:30pm 33.9 35.7 23.3 54 7.4 WNW 19 22 10 12 1008.9 - -
20/12:00pm 33.2 34.9 21.7 51 7.8 WNW 15 17 8 9 1009.1 1009.0 -
20/11:30am 32.6 35.1 22.4 55 7.0 WNW 13 15 7 8 1009.6 - -
20/11:00am 32.2 35.5 23.2 59 6.2 NW 11 15 6 8 1010.2 - -
20/10:30am 32.5 36.4 24.3 62 5.7 WNW 11 13 6 7 1010.3 - -
20/10:00am 32.5 36.5 25.1 65 5.2 WNW 13 15 7 8 1010.3 - -
20/09:30am 31.0 34.7 23.9 66 4.9 WNW 11 13 6 7 1010.5 - -
20/09:00am 31.3 35.5 24.7 68 4.6 WNW 11 15 6 8 1010.6 1010.5 -
20/08:30am 30.8 34.8 24.4 68 4.5 W 11 15 6 8 1010.4 - -
20/08:00am 30.7 34.1 24.1 68 4.6 SW 13 17 7 9 1010.6 - -
20/07:30am 30.4 33.1 24.1 69 4.4 SW 17 20 9 11 1010.5 - -
20/07:00am 29.8 32.1 23.5 69 4.3 SW 17 20 9 11 1010.5 - -
20/06:30am 28.7 30.6 23.8 75 3.4 SW 20 24 11 13 1010.0 - -
20/06:00am 27.8 29.8 23.6 78 2.9 WSW 19 20 10 11 1009.6 1009.5 -
20/05:30am 27.2 29.3 23.7 81 2.4 WSW 19 22 10 12 1009.6 - -
20/05:00am 27.3 29.5 24.0 82 2.3 WSW 19 22 10 12 1009.4 - -
20/04:30am 27.3 29.2 23.7 81 2.5 SW 20 22 11 12 1009.2 - -
20/04:00am 27.4 28.6 23.2 78 2.9 SW 22 26 12 14 1009.0 - -
20/03:30am 27.5 28.6 23.1 77 3.0 SW 22 26 12 14 1009.0 - -
20/03:00am 27.5 28.9 23.5 79 2.7 WSW 22 26 12 14 1008.9 1008.8 -
20/02:30am 27.4 29.0 23.8 81 2.5 W 22 26 12 14 1008.8 - -
20/02:00am 27.6 29.0 24.2 82 2.4 WSW 24 26 13 14 1008.8 - -
20/01:30am 27.5 28.8 24.1 82 2.3 WSW 24 28 13 15 1008.9 - -
20/01:00am 27.6 28.5 24.0 81 2.5 WSW 26 28 14 15 1009.3 - -
20/12:30am 27.7 28.8 24.3 82 2.4 WSW 26 32 14 17 1009.5 - -
20/12:00am 27.7 28.7 24.1 81 2.5 WSW 26 28 14 15 1009.8 1009.7 -
 
Date/Time
WST
Temp
°C
App
Temp
°C
Dew
Point
Rel
Hum
%
Delta-T
°C
Wind Press
QNH
hPa
Press
MSL
hPa
Rain
since 9 am
mm
Dir
 
Spd
km/h
Gust
km/h
Spd
kts
Gust
kts
19/11:30pm 27.8 28.4 24.2 81 2.5 W 28 32 15 17 1009.8 - -
19/11:00pm 27.9 28.6 24.3 81 2.5 W 28 32 15 17 1010.3 - -
19/10:30pm 28.0 28.6 24.2 80 2.6 W 28 30 15 16 1010.4 - -
19/10:00pm 28.1 28.4 24.3 80 2.6 W 30 33 16 18 1010.5 - -
19/09:30pm 28.4 28.5 24.0 77 3.0 W 30 32 16 17 1010.6 - -
19/09:00pm 28.5 28.3 23.4 74 3.5 WNW 30 35 16 19 1010.5 1010.4 -
19/08:30pm 28.6 29.1 23.3 73 3.6 WNW 26 30 14 16 1010.3 - -
19/08:00pm 28.8 28.9 23.2 71 3.8 WNW 28 32 15 17 1009.8 - -
19/07:30pm 28.7 28.5 22.7 70 4.1 WNW 28 30 15 16 1009.4 - -
19/07:00pm 28.6 28.8 22.8 71 3.9 WNW 26 30 14 16 1009.3 - -
19/06:30pm 29.2 29.8 23.4 71 4.0 NW 26 30 14 16 1009.1 - -
19/06:00pm 29.9 30.3 23.1 67 4.7 NW 26 30 14 16 1009.1 1009.0 -
19/05:30pm 30.7 31.3 22.8 62 5.4 NW 24 28 13 15 1009.2 - -
19/05:00pm 31.2 32.4 22.5 60 5.9 NNW 20 24 11 13 1009.3 - -
19/04:30pm 31.8 33.6 22.5 58 6.4 NNW 17 24 9 13 1009.2 - -
19/04:00pm 31.5 32.9 21.9 56 6.5 NNW 17 20 9 11 1009.3 - -
19/03:30pm 32.3 33.9 22.1 55 6.9 NNW 17 20 9 11 1009.3 - -
19/03:00pm 33.3 35.5 23.3 55 6.9 NW 17 20 9 11 1009.5 1009.4 -
19/02:30pm 32.1 34.5 22.2 56 6.7 NNW 13 17 7 9 1009.7 - -
19/02:00pm 33.3 35.8 22.4 52 7.5 NW 13 19 7 10 1009.9 - -
19/01:30pm 33.5 36.5 22.6 53 7.5 WNW 11 15 6 8 1010.1 - -
19/01:00pm 33.0 35.2 21.8 51 7.6 WNW 13 17 7 9 1010.0 - -
19/12:30pm 32.4 34.4 22.2 55 7.0 NW 15 19 8 10 1010.3 - -
19/12:00pm 32.8 34.7 22.0 53 7.4 NNW 15 17 8 9 1010.6 1010.5 -
19/11:30am 32.2 34.5 22.0 55 6.9 NNW 13 17 7 9 1011.0 - -
19/11:00am 33.1 35.3 21.9 51 7.6 NNW 13 19 7 10 1011.2 - -
19/10:30am 33.1 35.3 21.9 51 7.6 NNW 13 19 7 10 1011.4 - -
19/10:00am 31.8 33.3 21.3 53 7.1 NNW 15 19 8 10 1011.8 - -
19/09:30am 31.4 33.3 22.7 60 6.0 NNW 17 20 9 11 1011.6 - -
19/09:00am 31.5 33.4 22.8 60 6.0 N 17 20 9 11 1011.7 1011.6 -
19/08:30am 31.9 33.8 23.4 60 5.9 N 19 22 10 12 1011.7 - -
19/08:00am 31.2 33.0 23.3 63 5.4 N 19 22 10 12 1011.4 - -
19/07:30am 29.9 32.0 23.1 67 4.7 NNW 17 20 9 11 1011.2 - -
19/07:00am 29.2 31.8 23.9 73 3.7 NNW 17 20 9 11 1010.7 - -
19/06:30am 28.0 30.5 23.8 78 2.9 NNW 17 19 9 10 1010.3 - -
19/05:30am 26.6 28.5 23.7 84 2.0 NW 20 24 11 13 1009.2 - -
19/05:00am 26.4 28.3 23.5 84 2.0 NNW 19 20 10 11 1008.8 - -
19/04:30am 26.4 28.7 23.5 84 2.0 NNW 17 20 9 11 1008.8 - -
19/04:00am 26.6 28.1 23.7 84 2.0 WNW 22 24 12 13 1008.4 - -
19/03:30am 26.6 28.5 23.7 84 2.0 WNW 20 24 11 13 1008.6 - -
19/03:00am 26.6 28.2 23.9 85 1.9 WNW 22 26 12 14 1008.2 1008.1 -
19/02:30am 26.7 28.9 24.2 86 1.7 WNW 20 24 11 13 1008.6 - -
19/02:00am 27.0 29.0 24.6 87 1.7 W 22 26 12 14 1008.6 - -
19/01:30am 26.9 28.9 24.5 87 1.7 WNW 22 26 12 14 1008.8 - -
19/01:00am 27.0 29.0 24.5 86 1.7 WNW 22 24 12 13 1008.8 - -
19/12:30am 27.0 29.0 24.5 86 1.7 WNW 22 26 12 14 1009.1 - -
19/12:00am 27.2 28.9 24.6 86 1.8 WNW 24 28 13 15 1009.3 1009.2 -
 
Date/Time
WST
Temp
°C
App
Temp
°C
Dew
Point
Rel
Hum
%
Delta-T
°C
Wind Press
QNH
hPa
Press
MSL
hPa
Rain
since 9 am
mm
Dir
 
Spd
km/h
Gust
km/h
Spd
kts
Gust
kts
18/11:30pm 27.2 29.2 24.6 86 1.8 NW 22 26 12 14 1009.4 - -
18/11:00pm 27.3 29.3 24.6 85 1.9 NW 22 28 12 15 1009.4 - -
18/10:30pm 27.3 28.6 24.6 85 1.9 NW 26 32 14 17 1009.3 - -
18/10:00pm 27.4 28.4 24.8 86 1.8 WNW 28 33 15 18 1009.0 - -
18/09:30pm 27.6 28.6 24.8 85 2.0 WNW 28 32 15 17 1008.9 - -
18/09:00pm 27.6 28.6 24.8 85 2.0 WNW 28 32 15 17 1008.7 1008.6 -
18/08:30pm 27.7 28.4 24.9 85 2.0 WNW 30 33 16 18 1008.6 - -
18/08:00pm 27.8 28.7 24.6 83 2.2 WNW 28 32 15 17 1008.1 - -
18/07:30pm 27.9 28.6 24.3 81 2.5 NW 28 32 15 17 1007.7 - -
18/07:00pm 28.0 29.0 24.2 80 2.6 NW 26 32 14 17 1007.2 - -
18/06:30pm 28.4 29.0 23.5 75 3.4 NW 26 32 14 17 1006.8 - -
18/06:00pm 29.0 29.6 23.4 72 3.9 NW 26 30 14 16 1006.3 1006.2 -
18/05:30pm 30.0 31.2 23.9 70 4.2 NW 24 32 13 17 1006.2 - -
18/05:00pm 30.7 32.3 23.9 67 4.7 NNW 22 28 12 15 1006.3 - -
18/04:30pm 31.2 32.4 23.8 64 5.1 NW 24 28 13 15 1006.4 - -
18/04:00pm 31.4 32.2 23.8 64 5.3 NW 26 30 14 16 1006.6 - -
18/03:30pm 31.4 32.2 23.2 61 5.6 NW 24 28 13 15 1006.6 - -
18/03:00pm 32.1 33.0 23.3 59 6.1 NW 24 30 13 16 1006.8 1006.7 -
18/02:30pm 32.5 33.3 23.2 58 6.4 NW 24 32 13 17 1007.1 - -
18/02:00pm 32.1 33.2 23.1 59 6.2 NW 22 28 12 15 1007.1 - -
18/01:30pm 32.9 33.7 23.2 56 6.7 NW 24 28 13 15 1007.2 - -
18/01:00pm 32.6 34.0 23.5 58 6.3 NW 22 26 12 14 1007.4 - -
18/12:30pm 32.8 34.1 23.4 57 6.5 NW 22 26 12 14 1007.6 - -
18/12:00pm 32.9 34.5 23.2 56 6.7 NW 20 24 11 13 1007.9 1007.8 -
18/11:30am 32.3 33.8 22.7 57 6.6 NW 19 24 10 13 1008.2 - -
18/11:00am 32.0 34.2 23.3 60 6.0 WNW 17 20 9 11 1008.3 - -
18/10:30am 32.0 33.7 23.0 59 6.2 WNW 19 20 10 11 1008.2 - -
18/10:00am 31.9 34.0 23.7 62 5.7 WNW 19 20 10 11 1008.4 - -
18/09:30am 31.5 33.3 23.6 63 5.5 W 20 24 11 13 1008.5 - -
18/09:00am 31.3 32.7 24.2 66 5.0 WNW 24 28 13 15 1008.4 1008.3 -
18/08:30am 30.7 32.0 24.1 68 4.6 WNW 24 28 13 15 1008.2 - -
18/07:30am 29.3 29.7 23.7 72 3.9 WNW 28 32 15 17 1007.8 - -
18/07:00am 28.7 28.7 23.8 75 3.4 WNW 30 35 16 19 1007.4 - -
18/06:30am 27.9 28.1 23.5 77 3.0 WNW 28 33 15 18 1007.2 - -
18/06:00am 27.4 27.2 23.4 79 2.7 NW 30 35 16 19 1006.9 1006.8 -
18/05:30am 27.0 26.7 23.3 80 2.5 WNW 30 35 16 19 1006.4 - -
18/05:00am 26.9 26.3 23.4 81 2.4 WNW 32 37 17 20 1006.3 - -
18/04:30am 26.8 26.8 23.7 83 2.1 WNW 30 35 16 19 1006.0 - -
18/04:00am 26.7 26.7 23.8 84 2.0 WNW 30 33 16 18 1005.9 - -
18/03:30am 26.8 26.5 23.9 84 2.0 WNW 32 35 17 19 1006.0 - -
18/03:00am 26.9 26.7 24.0 84 2.0 WNW 32 35 17 19 1006.1 1006.0 -
18/02:30am 27.0 26.7 23.9 83 2.1 WNW 32 37 17 20 1006.2 - -
18/02:00am 26.9 26.4 23.6 82 2.3 WNW 32 35 17 19 1006.4 - -
18/01:30am 27.1 27.1 23.8 82 2.3 WNW 30 35 16 19 1006.8 - -
18/01:00am 27.2 26.6 23.7 81 2.4 WNW 33 37 18 20 1006.8 - -
18/12:30am 27.3 27.0 24.2 83 2.1 WNW 33 39 18 21 1007.1 - -
18/12:00am 27.1 26.9 24.0 83 2.1 NW 32 37 17 20 1007.2 1007.1 -
 
Date/Time
WST
Temp
°C
App
Temp
°C
Dew
Point
Rel
Hum
%
Delta-T
°C
Wind Press
QNH
hPa
Press
MSL
hPa
Rain
since 9 am
mm
Dir
 
Spd
km/h
Gust
km/h
Spd
kts
Gust
kts
17/11:30pm 27.2 27.8 24.1 83 2.1 NW 28 35 15 19 1007.5 - -
17/11:00pm 27.2 27.4 24.1 83 2.1 NW 30 35 16 19 1007.6 - -
17/10:30pm 27.1 27.2 24.0 83 2.1 NW 30 35 16 19 1007.7 - -
17/10:00pm 27.3 28.3 24.2 83 2.1 NNW 26 33 14 18 1007.7 - -
17/09:30pm 27.2 28.2 24.1 83 2.1 NW 26 30 14 16 1007.5 - -
17/09:00pm 27.2 28.4 23.9 82 2.3 NW 24 30 13 16 1007.2 1007.1 -
17/08:30pm 27.4 28.3 24.0 82 2.3 NW 26 30 14 16 1006.7 - -
17/08:00pm 27.4 27.8 23.8 81 2.5 NW 28 32 15 17 1006.6 - -
17/07:30pm 27.4 28.6 23.8 81 2.5 NW 24 30 13 16 1006.4 - -
17/07:00pm 27.6 27.6 23.8 80 2.6 WNW 30 33 16 18 1005.8 - -

Other Formats:

Comma delimited format used in spreadsheet applications
http://www.bom.gov.au/fwo/IDW60801/IDW60801.94310.axf

JavaScript Object Notation format (JSON) in row-major order
http://www.bom.gov.au/fwo/IDW60801/IDW60801.94310.json